Terminal Aerodrome Forecast
Issued by NWS

Home | Current Version | Previous Version | Text Only | Print | Product List | Glossary On
Versions: 1 2 3 4 5 6 7 8 9 10 11 12 13 14 15 16 17 18
000
FTUS43 KIND 280520
TAFBMG
TAF
KBMG 280520Z 2806/2906 15006KT P6SM VCSH SCT060 BKN150
     FM281200 17006KT P6SM BKN100
     FM281600 18010G20KT P6SM BKN040 PROB30 2819/2823 P6SM -TSRA
      OVC040CB
     FM290100 17007KT P6SM BKN050
      AMD LTD TO CLD VIS AND WIND TIL 281300=

USA.gov is the U.S. government's official web portal to all federal, state and local government web resources and services.